Amberson, Pennsylvania
Current Conditions -  °F | °C
As of 4:53 PM on Monday 24 Nov 2014 (Local Time) from KHGR Reporting Station
Clear Clear  
Wind Chill: 67°   Ceiling: Unl
Heat Index: 67°   Visibility: 10mi
Dew Point: 50°   Wind: 15mph
Humidity: 54%   Direction: 170°S
Pressure: 29.58"   Gusts: NA
Location:  40.17°N, 77.68°W
Report Text: KHGR 242153Z 17013KT 10SM CLR 19/10 A2958 RMK AO2 SLP023 T01940100
Loading
Personal Weather Stations






























Interactive Weather Map New forecast layout! Learn more

10-Day Weather Forecast

Advertisements
Track Severe Weather on mobile